Time;durP1;ratioP1;P1;durP2;ratioP2;P2;SDS_P1;SDS_P2;PMS_P1;PMS_P2;Temp;Humidity;BMP_temperature;BMP_pressure;BME280_temperature;BME280_humidity;BME280_pressure;Samples;Min_cycle;Max_cycle;Signal;HPM_P1;HPM_P2
2021/01/21 00:00:05;;;;;;;1999.90;999.90;;;10.40;99.90;;;;;;5099651;28;20155;-84
2021/01/21 00:02:31;;;;;;;1999.90;999.90;;;10.40;99.90;;;;;;5081501;28;20669;-84
2021/01/21 00:04:56;;;;;;;1999.90;999.90;;;10.40;99.90;;;;;;5099658;28;20162;-83
2021/01/21 00:07:22;;;;;;;1999.90;999.90;;;10.40;99.90;;;;;;5099664;28;20193;-84
2021/01/21 00:09:47;;;;;;;1999.90;999.90;;;10.30;99.90;;;;;;5081122;28;20167;-84
2021/01/21 00:12:22;;;;;;;1999.90;999.90;;;10.20;99.90;;;;;;5080759;28;20174;-84
2021/01/21 00:14:48;;;;;;;1999.90;999.90;;;10.20;99.90;;;;;;5099368;28;20260;-83
2021/01/21 00:17:14;;;;;;;1999.90;999.90;;;10.10;99.90;;;;;;5100341;28;20160;-84
2021/01/21 00:19:39;;;;;;;1999.90;999.90;;;10.10;99.90;;;;;;5099237;28;20155;-84
2021/01/21 00:22:05;;;;;;;1999.90;999.90;;;10.10;99.90;;;;;;5099800;28;20238;-84
2021/01/21 00:24:33;;;;;;;1999.90;999.90;;;10.10;99.90;;;;;;5099655;28;20211;-84
2021/01/21 00:26:59;;;;;;;1999.90;999.90;;;10.10;99.90;;;;;;5098860;28;20563;-84
2021/01/21 00:29:25;;;;;;;1999.90;999.90;;;10.10;99.90;;;;;;5081278;28;20198;-84
2021/01/21 00:31:51;;;;;;;1999.90;999.90;;;10.10;99.90;;;;;;5080871;28;20227;-84
2021/01/21 00:34:17;;;;;;;1999.90;999.90;;;10.10;99.90;;;;;;5099401;28;20171;-84
2021/01/21 00:36:43;;;;;;;1999.90;999.90;;;10.10;99.90;;;;;;5099242;28;20471;-84
2021/01/21 00:39:08;;;;;;;1999.90;999.90;;;10.00;99.90;;;;;;5082036;28;20205;-84
2021/01/21 00:41:37;;;;;;;1999.90;999.90;;;10.00;99.90;;;;;;5103594;28;20159;-84
2021/01/21 00:44:03;;;;;;;1999.90;999.90;;;10.00;99.90;;;;;;5085139;28;20443;-84
2021/01/21 00:46:29;;;;;;;1999.90;999.90;;;10.10;99.90;;;;;;5103664;28;20634;-84
2021/01/21 00:48:54;;;;;;;1999.90;999.90;;;10.10;99.90;;;;;;5103904;28;20163;-84
2021/01/21 00:51:20;;;;;;;1999.90;999.90;;;10.10;99.90;;;;;;5085313;28;20626;-84
2021/01/21 00:53:46;;;;;;;1999.90;999.90;;;10.10;99.90;;;;;;5103215;28;20159;-83
2021/01/21 00:56:29;;;;;;;1999.90;999.90;;;10.20;99.90;;;;;;5084907;28;20203;-84
2021/01/21 00:58:54;;;;;;;1999.90;999.90;;;10.20;99.90;;;;;;5085313;28;20308;-84
2021/01/21 01:01:20;;;;;;;1999.90;999.90;;;10.20;99.90;;;;;;5084517;28;20198;-84
2021/01/21 01:03:46;;;;;;;1999.90;999.90;;;10.20;99.90;;;;;;5102630;28;20219;-84
2021/01/21 01:06:11;;;;;;;1999.90;999.90;;;10.20;99.90;;;;;;5103046;28;20227;-84
2021/01/21 01:08:37;;;;;;;1999.90;999.90;;;10.20;99.90;;;;;;5085053;28;20699;-84
2021/01/21 01:11:03;;;;;;;1999.90;999.90;;;10.20;99.90;;;;;;5103553;28;20167;-84
2021/01/21 01:13:34;;;;;;;1999.90;999.90;;;10.20;99.90;;;;;;5102923;28;20222;-84
2021/01/21 01:16:00;;;;;;;1999.90;999.90;;;10.20;99.90;;;;;;5084417;28;20211;-84
2021/01/21 01:18:55;;;;;;;1999.90;999.90;;;10.20;99.90;;;;;;5084379;28;20159;-84
2021/01/21 01:21:21;;;;;;;1999.90;999.90;;;10.20;99.90;;;;;;5083778;28;20175;-84
2021/01/21 01:23:47;;;;;;;1999.90;999.90;;;10.20;99.90;;;;;;5102941;28;20573;-84
2021/01/21 01:26:15;;;;;;;1999.90;999.90;;;10.20;99.90;;;;;;5102425;28;20163;-84
2021/01/21 01:28:48;;;;;;;1999.90;999.90;;;10.30;99.90;;;;;;5101929;28;20506;-84
2021/01/21 01:31:13;;;;;;;1999.90;999.90;;;10.30;99.90;;;;;;5084585;28;20168;-84
2021/01/21 01:33:48;;;;;;;1999.90;999.90;;;10.30;99.90;;;;;;5102262;28;20167;-84
2021/01/21 01:36:17;;;;;;;1999.90;999.90;;;10.30;99.90;;;;;;5102904;28;20432;-84
2021/01/21 01:38:42;;;;;;;1999.90;999.90;;;10.30;99.90;;;;;;5102260;28;20163;-84
2021/01/21 01:41:09;;;;;;;1999.90;999.90;;;10.30;99.90;;;;;;5102575;28;20183;-84
2021/01/21 01:43:35;;;;;;;1999.90;999.90;;;10.30;99.90;;;;;;5102110;28;20167;-84
2021/01/21 01:46:01;;;;;;;1999.90;999.90;;;10.30;99.90;;;;;;5103021;28;20178;-84
2021/01/21 01:48:26;;;;;;;1999.90;999.90;;;10.40;99.90;;;;;;5102161;28;20683;-84
2021/01/21 01:50:52;;;;;;;1999.90;999.90;;;10.40;99.90;;;;;;5100923;28;20888;-84
2021/01/21 01:53:18;;;;;;;1999.90;999.90;;;10.40;99.90;;;;;;5101883;28;20163;-84
2021/01/21 01:55:44;;;;;;;1999.90;999.90;;;10.40;99.90;;;;;;5084953;28;20449;-84
2021/01/21 01:58:10;;;;;;;1999.90;999.90;;;10.40;99.90;;;;;;5083374;28;20412;-84
2021/01/21 02:00:36;;;;;;;1999.90;999.90;;;10.50;99.90;;;;;;5102176;28;20195;-84
2021/01/21 02:03:03;;;;;;;1999.90;999.90;;;10.50;99.90;;;;;;5101799;28;20201;-84
2021/01/21 02:05:28;;;;;;;1999.90;999.90;;;10.50;99.90;;;;;;5102114;28;20874;-84
2021/01/21 02:07:54;;;;;;;1999.90;999.90;;;10.50;99.90;;;;;;5083944;28;20175;-84
2021/01/21 02:10:21;;;;;;;1999.90;999.90;;;10.60;99.90;;;;;;5101890;28;20216;-83
2021/01/21 02:13:12;;;;;;;1999.90;999.90;;;10.60;99.90;;;;;;5103996;28;20317;-84
2021/01/21 02:16:09;;;;;;;1999.90;999.90;;;10.70;99.90;;;;;;5057946;28;20610;-84
2021/01/21 02:18:47;;;;;;;1999.90;999.90;;;10.70;99.90;;;;;;5104377;28;20254;-84
2021/01/21 02:21:54;;;;;;;1999.90;999.90;;;10.70;99.90;;;;;;5101290;28;20190;-84
2021/01/21 02:24:23;;;;;;;1999.90;999.90;;;10.80;99.90;;;;;;5044961;28;20210;-84
2021/01/21 02:27:06;;;;;;;1999.90;999.90;;;10.80;99.90;;;;;;5082634;28;20161;-83
2021/01/21 02:29:41;;;;;;;1999.90;999.90;;;10.90;99.90;;;;;;5101009;28;20147;-84
2021/01/21 02:32:06;;;;;;;1999.90;999.90;;;10.90;99.90;;;;;;5082617;28;20167;-84
2021/01/21 02:34:39;;;;;;;1999.90;999.90;;;11.00;99.90;;;;;;5100757;28;20532;-84
2021/01/21 02:37:24;;;;;;;1999.90;999.90;;;11.10;99.90;;;;;;5101289;28;20159;-84
2021/01/21 02:39:53;;;;;;;1999.90;999.90;;;11.10;99.90;;;;;;5101140;28;20218;-84
2021/01/21 02:42:19;;;;;;;1999.90;999.90;;;11.20;99.90;;;;;;5101581;28;20232;-84
2021/01/21 02:44:48;;;;;;;1999.90;999.90;;;11.20;99.90;;;;;;5100559;28;20178;-84
2021/01/21 02:47:16;;;;;;;1999.90;999.90;;;11.10;99.90;;;;;;5101353;28;20429;-84
2021/01/21 02:49:43;;;;;;;1999.90;999.90;;;11.10;99.90;;;;;;5100983;28;20163;-83
2021/01/21 02:52:31;;;;;;;1999.90;999.90;;;11.10;99.90;;;;;;5082498;28;20174;-84
2021/01/21 02:55:17;;;;;;;1999.90;999.90;;;11.00;99.90;;;;;;5100289;28;20262;-83
2021/01/21 02:57:48;;;;;;;1999.90;999.90;;;11.00;99.90;;;;;;5102326;28;20148;-83
2021/01/21 03:00:16;;;;;;;1999.90;999.90;;;10.90;99.90;;;;;;5100847;28;20610;-84
2021/01/21 03:02:45;;;;;;;1999.90;999.90;;;10.90;99.90;;;;;;5099615;28;20213;-84
2021/01/21 03:05:15;;;;;;;1999.90;999.90;;;10.90;99.90;;;;;;5100353;28;20212;-84
2021/01/21 03:07:41;;;;;;;1999.90;999.90;;;10.90;99.90;;;;;;5101115;28;20234;-83
2021/01/21 03:10:09;;;;;;;1999.90;999.90;;;10.90;99.90;;;;;;5101229;28;20166;-84
2021/01/21 03:12:35;;;;;;;1999.90;999.90;;;11.00;99.90;;;;;;5100126;28;20167;-84
2021/01/21 03:15:00;;;;;;;1999.90;999.90;;;11.00;99.90;;;;;;5100087;28;20609;-84
2021/01/21 03:17:28;;;;;;;1999.90;999.90;;;11.00;99.90;;;;;;5100163;28;20160;-84
2021/01/21 03:19:54;;;;;;;1999.90;999.90;;;11.00;99.90;;;;;;5100814;28;20506;-83
2021/01/21 03:22:20;;;;;;;1999.90;999.90;;;11.00;99.90;;;;;;5099905;28;20164;-83
2021/01/21 03:24:46;;;;;;;1999.90;999.90;;;11.10;99.90;;;;;;5100242;28;20155;-84
2021/01/21 03:27:12;;;;;;;1999.90;999.90;;;11.10;99.90;;;;;;5100421;28;20394;-84
2021/01/21 03:29:38;;;;;;;1999.90;999.90;;;11.10;99.90;;;;;;5081826;28;20564;-84
2021/01/21 03:32:04;;;;;;;1999.90;999.90;;;11.10;99.90;;;;;;5100430;28;20526;-84
2021/01/21 03:34:30;;;;;;;1999.90;999.90;;;11.20;99.90;;;;;;5099724;28;20531;-84
2021/01/21 03:36:56;;;;;;;1999.90;999.90;;;11.20;99.90;;;;;;5100270;28;20166;-84
2021/01/21 03:39:21;;;;;;;1999.90;999.90;;;11.20;99.90;;;;;;5081581;28;20401;-84
2021/01/21 03:41:51;;;;;;;1999.90;999.90;;;11.20;99.90;;;;;;5099902;28;20462;-84
2021/01/21 03:44:17;;;;;;;1999.90;999.90;;;11.20;99.90;;;;;;5081574;28;20182;-84
2021/01/21 03:46:43;;;;;;;1999.90;999.90;;;11.20;99.90;;;;;;5099605;28;20525;-84
2021/01/21 03:49:10;;;;;;;1999.90;999.90;;;11.20;99.90;;;;;;5099709;28;20163;-84
2021/01/21 03:51:35;;;;;;;1999.90;999.90;;;11.20;99.90;;;;;;5099275;28;20182;-84
2021/01/21 03:54:01;;;;;;;1999.90;999.90;;;11.20;99.90;;;;;;5099926;28;20162;-84
2021/01/21 03:56:26;;;;;;;1999.90;999.90;;;11.20;99.90;;;;;;5099486;28;20693;-84
2021/01/21 03:58:52;;;;;;;1999.90;999.90;;;11.20;99.90;;;;;;5082082;28;20159;-85
2021/01/21 04:01:18;;;;;;;1999.90;999.90;;;11.20;99.90;;;;;;5099799;28;20609;-84
2021/01/21 04:03:43;;;;;;;1999.90;999.90;;;11.30;99.90;;;;;;5100070;28;20518;-84
2021/01/21 04:06:10;;;;;;;1999.90;999.90;;;11.30;99.90;;;;;;5099036;28;20167;-83
2021/01/21 04:08:36;;;;;;;1999.90;999.90;;;11.30;99.90;;;;;;5082465;28;20170;-84
2021/01/21 04:11:02;;;;;;;1999.90;999.90;;;11.30;99.90;;;;;;5099875;28;20164;-84
2021/01/21 04:13:28;;;;;;;1999.90;999.90;;;11.30;99.90;;;;;;5082111;28;20844;-84
2021/01/21 04:15:54;;;;;;;1999.90;999.90;;;11.20;99.90;;;;;;5099952;28;20451;-84
2021/01/21 04:18:19;;;;;;;1999.90;999.90;;;11.20;99.90;;;;;;5100249;28;20419;-84
2021/01/21 04:20:45;;;;;;;1999.90;999.90;;;11.10;99.90;;;;;;5083985;28;20538;-84
2021/01/21 04:23:11;;;;;;;1999.90;999.90;;;11.20;99.90;;;;;;5103374;28;20179;-84
2021/01/21 04:25:36;;;;;;;1999.90;999.90;;;11.10;99.90;;;;;;5099869;28;20400;-84
2021/01/21 04:28:03;;;;;;;1999.90;999.90;;;11.10;99.90;;;;;;5100209;28;20557;-84
2021/01/21 04:30:29;;;;;;;1999.90;999.90;;;11.10;99.90;;;;;;5099683;28;20191;-84
2021/01/21 04:32:55;;;;;;;1999.90;999.90;;;11.20;99.90;;;;;;5099261;28;20680;-84
2021/01/21 04:35:20;;;;;;;1999.90;999.90;;;11.10;99.90;;;;;;5099601;28;20191;-84
2021/01/21 04:37:46;;;;;;;1999.90;999.90;;;11.10;99.90;;;;;;5099512;28;20162;-84
2021/01/21 04:40:12;;;;;;;1999.90;999.90;;;11.10;99.90;;;;;;5100119;28;20159;-84
2021/01/21 04:42:38;;;;;;;1999.90;999.90;;;11.10;99.90;;;;;;5081301;28;20171;-84
2021/01/21 04:45:15;;;;;;;1999.90;999.90;;;11.10;99.90;;;;;;5161256;22;20851;-81
2021/01/21 04:47:47;;;;;;;1999.90;999.90;;;11.10;99.90;;;;;;5080531;28;20891;-80
2021/01/21 04:50:17;;;;;;;1999.90;999.90;;;11.10;99.90;;;;;;5079412;28;20538;-81
2021/01/21 04:52:58;;;;;;;1999.90;999.90;;;11.10;99.90;;;;;;5080363;28;20192;-81
2021/01/21 04:55:30;;;;;;;1999.90;999.90;;;11.10;99.90;;;;;;5080441;28;20194;-81
2021/01/21 04:58:15;;;;;;;1999.90;999.90;;;11.00;99.90;;;;;;5079798;28;20145;-81
2021/01/21 05:00:43;;;;;;;1999.90;999.90;;;11.00;99.90;;;;;;5080080;28;20619;-81
2021/01/21 05:03:09;;;;;;;1999.90;999.90;;;11.00;99.90;;;;;;5061813;28;20195;-80
2021/01/21 05:05:35;;;;;;;1999.90;999.90;;;11.00;99.90;;;;;;5060968;28;20175;-80
2021/01/21 05:08:02;;;;;;;1999.90;999.90;;;11.00;99.90;;;;;;5078859;28;20168;-80
2021/01/21 05:10:28;;;;;;;1999.90;999.90;;;11.00;99.90;;;;;;5060580;28;20196;-81
2021/01/21 05:12:56;;;;;;;1999.90;999.90;;;10.90;99.90;;;;;;5078205;28;20164;-81
2021/01/21 05:15:22;;;;;;;1999.90;999.90;;;10.90;99.90;;;;;;5078634;28;20219;-81
2021/01/21 05:17:48;;;;;;;1999.90;999.90;;;11.00;99.90;;;;;;5061206;28;20175;-81
2021/01/21 05:20:14;;;;;;;1999.90;999.90;;;11.00;99.90;;;;;;5077956;28;20171;-81
2021/01/21 05:22:45;;;;;;;1999.90;999.90;;;11.10;99.90;;;;;;5078283;28;20221;-81
2021/01/21 05:25:14;;;;;;;1999.90;999.90;;;11.10;99.90;;;;;;5078811;28;20163;-80
2021/01/21 05:27:45;;;;;;;1999.90;999.90;;;11.10;99.90;;;;;;5081795;28;20166;-80
2021/01/21 05:30:14;;;;;;;1999.90;999.90;;;11.00;99.90;;;;;;5080847;28;20166;-79
2021/01/21 05:32:40;;;;;;;1999.90;999.90;;;11.10;99.90;;;;;;5080973;28;20171;-81
2021/01/21 05:35:14;;;;;;;1999.90;999.90;;;11.10;99.90;;;;;;5082088;28;20192;-80
2021/01/21 05:37:40;;;;;;;1999.90;999.90;;;11.10;99.90;;;;;;5064174;28;20271;-82
2021/01/21 05:40:07;;;;;;;1999.90;999.90;;;11.00;99.90;;;;;;5081881;28;20170;-81
2021/01/21 05:42:43;;;;;;;1999.90;999.90;;;11.00;99.90;;;;;;5081619;28;20156;-81
2021/01/21 05:45:09;;;;;;;1999.90;999.90;;;11.20;99.90;;;;;;5066244;28;20171;-82
2021/01/21 05:47:38;;;;;;;1999.90;999.90;;;10.70;99.90;;;;;;5080433;28;20176;-78
2021/01/21 05:50:05;;;;;;;1999.90;999.90;;;9.80;99.90;;;;;;5079909;28;20166;-79
2021/01/21 05:52:30;;;;;;;1999.90;999.90;;;9.00;99.90;;;;;;5079897;28;20164;-80
2021/01/21 05:54:57;;;;;;;1999.90;999.90;;;8.20;99.90;;;;;;5079975;28;20241;-79
2021/01/21 05:57:23;;;;;;;1999.90;999.90;;;7.70;99.90;;;;;;5080133;28;20626;-79
2021/01/21 05:59:49;;;;;;;1999.90;999.90;;;7.40;99.90;;;;;;5061464;28;20172;-80
2021/01/21 06:02:16;;;;;;;1999.90;999.90;;;7.20;99.90;;;;;;5079638;28;20496;-80
2021/01/21 06:04:42;;;;;;;1999.90;999.90;;;7.10;99.90;;;;;;5079863;28;20160;-80
2021/01/21 06:07:10;;;;;;;1999.90;999.90;;;7.00;99.90;;;;;;5080335;28;20297;-80
2021/01/21 06:09:38;;;;;;;1999.90;999.90;;;6.80;99.90;;;;;;5062301;28;20191;-80
2021/01/21 06:12:06;;;;;;;1999.90;999.90;;;6.80;99.90;;;;;;5080103;28;20175;-80
2021/01/21 06:14:32;;;;;;;1999.90;999.90;;;6.70;99.90;;;;;;5080526;28;20511;-80
2021/01/21 06:17:01;;;;;;;1999.90;999.90;;;6.60;99.90;;;;;;5079189;28;20222;-80
2021/01/21 06:19:26;;;;;;;1999.90;999.90;;;6.60;99.90;;;;;;5080304;28;20160;-78
2021/01/21 06:22:11;;;;;;;1999.90;999.90;;;6.60;99.90;;;;;;5080510;28;20248;-81
2021/01/21 06:24:44;;;;;;;1999.90;999.90;;;6.70;99.90;;;;;;5062738;28;20406;-80
2021/01/21 06:27:10;;;;;;;1999.90;999.90;;;6.70;99.90;;;;;;5080658;28;20425;-81
2021/01/21 06:29:37;;;;;;;1999.90;999.90;;;6.70;99.90;;;;;;5079849;28;20156;-80
2021/01/21 06:32:04;;;;;;;1999.90;999.90;;;6.70;99.90;;;;;;5062617;28;20657;-81
2021/01/21 06:34:35;;;;;;;1999.90;999.90;;;6.70;99.90;;;;;;5080771;28;20210;-80
2021/01/21 06:37:17;;;;;;;1999.90;999.90;;;6.80;99.90;;;;;;5078490;28;20627;-80
2021/01/21 06:40:17;;;;;;;1999.90;999.90;;;6.80;99.90;;;;;;5061218;28;20531;-80
2021/01/21 06:43:10;;;;;;;1999.90;999.90;;;6.70;99.90;;;;;;5075878;28;20255;-81
2021/01/21 06:45:38;;;;;;;1999.90;999.90;;;6.80;99.90;;;;;;5078068;28;20188;-80
2021/01/21 06:48:05;;;;;;;1999.90;999.90;;;6.90;99.90;;;;;;5079746;28;20225;-80
2021/01/21 06:50:32;;;;;;;1999.90;999.90;;;6.90;99.90;;;;;;5061586;28;20174;-80
2021/01/21 06:53:02;;;;;;;1999.90;999.90;;;6.80;99.90;;;;;;5079419;28;20251;-80
2021/01/21 06:55:29;;;;;;;1999.90;999.90;;;6.90;99.90;;;;;;5079236;28;20179;-80
2021/01/21 06:57:55;;;;;;;1999.90;999.90;;;7.00;99.90;;;;;;5079288;28;20159;-80
2021/01/21 07:00:40;;;;;;;1999.90;999.90;;;6.90;99.90;;;;;;5078833;28;20163;-80
2021/01/21 07:03:07;;;;;;;1999.90;999.90;;;6.90;99.90;;;;;;5061386;28;20634;-80
2021/01/21 07:05:33;;;;;;;1999.90;999.90;;;6.90;99.90;;;;;;5079028;28;20172;-80
2021/01/21 07:08:04;;;;;;;1999.90;999.90;;;7.00;99.90;;;;;;5079093;28;20564;-79
2021/01/21 07:10:46;;;;;;;1999.90;999.90;;;6.90;99.90;;;;;;5078570;28;20862;-80
2021/01/21 07:13:17;;;;;;;1999.90;999.90;;;6.90;99.90;;;;;;5078710;28;20167;-80
2021/01/21 07:15:51;;;;;;;1999.90;999.90;;;6.70;99.90;;;;;;5079158;28;20646;-80
2021/01/21 07:18:19;;;;;;;1999.90;999.90;;;6.80;99.90;;;;;;5079136;28;20237;-80
2021/01/21 07:21:05;;;;;;;1999.90;999.90;;;6.80;99.90;;;;;;5061053;28;20175;-79
2021/01/21 07:23:39;;;;;;;1999.90;999.90;;;6.80;99.90;;;;;;5079476;28;20140;-78
2021/01/21 07:26:30;;;;;;;1999.90;999.90;;;6.90;99.90;;;;;;5079521;28;20155;-80
2021/01/21 07:28:58;;;;;;;1999.90;999.90;;;6.90;99.90;;;;;;5061974;28;20171;-81
2021/01/21 07:31:28;;;;;;;1999.90;999.90;;;6.80;99.90;;;;;;5078807;28;20167;-80
2021/01/21 07:34:31;;;;;;;1999.90;999.90;;;6.80;99.90;;;;;;5078897;28;20496;-81
2021/01/21 07:37:17;;;;;;;1999.90;999.90;;;6.80;99.90;;;;;;5078688;28;20195;-80
2021/01/21 07:39:50;;;;;;;1999.90;999.90;;;6.80;99.90;;;;;;5078583;28;20148;-81
2021/01/21 07:42:16;;;;;;;1999.90;999.90;;;6.90;99.90;;;;;;5077961;28;20187;-80
2021/01/21 07:44:59;;;;;;;1999.90;999.90;;;7.00;99.90;;;;;;5078955;28;20168;-79
2021/01/21 07:47:35;;;;;;;1999.90;999.90;;;6.90;99.90;;;;;;5078876;28;20178;-81
2021/01/21 07:50:21;;;;;;;1999.90;999.90;;;6.90;99.90;;;;;;5060179;28;20163;-80
2021/01/21 07:52:49;;;;;;;1999.90;999.90;;;6.90;99.90;;;;;;5060500;28;20171;-80
2021/01/21 07:55:23;;;;;;;1999.90;999.90;;;6.80;99.90;;;;;;5078870;28;20187;-81
2021/01/21 07:57:49;;;;;;;1999.90;999.90;;;6.90;99.90;;;;;;5079570;28;20156;-81
2021/01/21 08:00:21;;;;;;;1999.90;999.90;;;7.00;99.90;;;;;;5079796;28;20281;-81
2021/01/21 08:02:49;;;;;;;1999.90;999.90;;;7.10;99.90;;;;;;5061367;28;20160;-80
2021/01/21 08:05:17;;;;;;;1999.90;999.90;;;7.00;99.90;;;;;;5078786;28;20160;-81
2021/01/21 08:07:47;;;;;;;1999.90;999.90;;;7.00;99.90;;;;;;5079170;28;20221;-81
2021/01/21 08:10:20;;;;;;;1999.90;999.90;;;7.00;99.90;;;;;;5079645;28;20522;-81
2021/01/21 08:12:59;;;;;;;1999.90;999.90;;;7.00;99.90;;;;;;5079391;28;20170;-81
2021/01/21 08:15:27;;;;;;;1999.90;999.90;;;6.90;99.90;;;;;;5079883;28;20191;-81
2021/01/21 08:18:04;;;;;;;1999.90;999.90;;;6.90;99.90;;;;;;5079550;28;20164;-81
2021/01/21 08:20:36;;;;;;;1999.90;999.90;;;6.80;99.90;;;;;;5079300;28;20144;-81
2021/01/21 08:23:11;;;;;;;1999.90;999.90;;;6.70;99.90;;;;;;5078870;28;20257;-82
2021/01/21 08:25:41;;;;;;;1999.90;999.90;;;6.80;99.90;;;;;;5061827;28;20158;-81
2021/01/21 08:28:07;;;;;;;1999.90;999.90;;;6.80;99.90;;;;;;5078773;28;20210;-81
2021/01/21 08:30:33;;;;;;;1999.90;999.90;;;6.70;99.90;;;;;;5080001;28;20297;-80
2021/01/21 08:32:59;;;;;;;1999.90;999.90;;;6.70;99.90;;;;;;5060707;28;20234;-81
2021/01/21 08:35:27;;;;;;;1999.90;999.90;;;6.60;99.90;;;;;;5079688;28;20740;-80
2021/01/21 08:37:55;;;;;;;1999.90;999.90;;;6.60;99.90;;;;;;5079196;28;20597;-82
2021/01/21 08:40:22;;;;;;;1999.90;999.90;;;6.50;99.90;;;;;;5079433;28;20155;-81
2021/01/21 08:42:53;;;;;;;1999.90;999.90;;;6.60;99.90;;;;;;5061410;28;20231;-81
2021/01/21 08:45:20;;;;;;;1999.90;999.90;;;6.60;99.90;;;;;;5060157;28;20611;-79
2021/01/21 08:47:48;;;;;;;1999.90;999.90;;;6.50;99.90;;;;;;5079019;28;20156;-81
2021/01/21 08:50:17;;;;;;;1999.90;999.90;;;6.50;99.90;;;;;;5060951;28;20167;-81
2021/01/21 08:53:21;;;;;;;1999.90;999.90;;;6.50;99.90;;;;;;5079394;28;20214;-81
2021/01/21 08:55:50;;;;;;;1999.90;999.90;;;6.60;99.90;;;;;;5016748;28;20197;-81
2021/01/21 08:58:16;;;;;;;1999.90;999.90;;;6.60;99.90;;;;;;5016395;28;20174;-81
2021/01/21 09:01:14;;;;;;;1999.90;999.90;;;6.50;99.90;;;;;;5049735;28;20543;-81
2021/01/21 09:03:47;;;;;;;1999.90;999.90;;;6.60;99.90;;;;;;5083169;28;20570;-81
2021/01/21 09:06:17;;;;;;;1999.90;999.90;;;6.60;99.90;;;;;;5066220;28;20163;-81
2021/01/21 09:08:54;;;;;;;1999.90;999.90;;;6.60;99.90;;;;;;5066716;28;20564;-81
2021/01/21 09:11:46;;;;;;;1999.90;999.90;;;6.60;99.90;;;;;;5065826;28;20159;-81
2021/01/21 09:14:18;;;;;;;1999.90;999.90;;;6.70;99.90;;;;;;5063425;28;20180;-81
2021/01/21 09:16:53;;;;;;;1999.90;999.90;;;6.70;99.90;;;;;;5084094;28;20190;-81
2021/01/21 09:19:27;;;;;;;1999.90;999.90;;;6.80;99.90;;;;;;5083014;28;20159;-81
2021/01/21 09:22:04;;;;;;;1999.90;999.90;;;6.70;99.90;;;;;;5065961;28;20159;-81
2021/01/21 09:24:34;;;;;;;1999.90;999.90;;;6.80;99.90;;;;;;5065450;28;20216;-81
2021/01/21 09:27:12;;;;;;;1999.90;999.90;;;6.90;99.90;;;;;;5083971;28;20222;-81
2021/01/21 09:29:57;;;;;;;1999.90;999.90;;;6.90;99.90;;;;;;5083368;28;20255;-81
2021/01/21 09:32:26;;;;;;;1999.90;999.90;;;6.90;99.90;;;;;;5065049;28;20190;-81
2021/01/21 09:34:57;;;;;;;1999.90;999.90;;;6.90;99.90;;;;;;5082679;28;20538;-81
2021/01/21 09:37:28;;;;;;;1999.90;999.90;;;6.90;99.90;;;;;;5066297;28;20168;-81
2021/01/21 09:39:54;;;;;;;1999.90;999.90;;;7.00;99.90;;;;;;5082981;28;20148;-80
2021/01/21 09:42:20;;;;;;;1999.90;999.90;;;7.00;99.90;;;;;;5082501;28;20167;-81
2021/01/21 09:44:46;;;;;;;1999.90;999.90;;;7.20;99.90;;;;;;5082490;28;20527;-81
2021/01/21 09:47:13;;;;;;;1999.90;999.90;;;7.20;99.90;;;;;;5083082;28;20176;-80
2021/01/21 09:49:41;;;;;;;1999.90;999.90;;;7.20;99.90;;;;;;5082619;28;20164;-81
2021/01/21 09:52:07;;;;;;;1999.90;999.90;;;7.20;99.90;;;;;;5064828;28;20195;-81
2021/01/21 09:54:36;;;;;;;1999.90;999.90;;;7.20;99.90;;;;;;5082851;28;20163;-81
2021/01/21 09:57:02;;;;;;;1999.90;999.90;;;7.20;99.90;;;;;;5082892;28;20491;-81
2021/01/21 09:59:28;;;;;;;1999.90;999.90;;;7.40;99.90;;;;;;5082530;28;20219;-81
2021/01/21 10:01:59;;;;;;;1999.90;999.90;;;7.40;99.90;;;;;;5063873;28;20203;-80
2021/01/21 10:04:25;;;;;;;1999.90;999.90;;;7.40;99.90;;;;;;5082009;28;20145;-81
2021/01/21 10:06:54;;;;;;;1999.90;999.90;;;7.50;99.90;;;;;;5082080;28;20251;-81
2021/01/21 10:12:39;;;;;;;1999.90;999.90;;;7.70;99.90;;;;;;5065785;28;20168;-80
2021/01/21 10:15:08;;;;;;;1999.90;999.90;;;7.90;99.90;;;;;;5061001;28;20204;-81
2021/01/21 10:17:34;;;;;;;1999.90;999.90;;;7.90;99.90;;;;;;5082742;28;20164;-81
2021/01/21 10:20:00;;;;;;;1999.90;999.90;;;7.90;99.90;;;;;;5083938;28;20186;-81
2021/01/21 10:22:25;;;;;;;1999.90;999.90;;;8.10;99.90;;;;;;5086307;28;20159;-81
2021/01/21 10:24:51;;;;;;;1999.90;999.90;;;8.20;99.90;;;;;;5084755;28;20160;-81
2021/01/21 10:27:17;;;;;;;1999.90;999.90;;;8.20;99.90;;;;;;5084524;28;20231;-81
2021/01/21 10:29:48;;;;;;;1999.90;999.90;;;8.20;99.90;;;;;;5066059;28;20168;-81
2021/01/21 10:32:13;;;;;;;1999.90;999.90;;;8.10;99.90;;;;;;5083245;28;20155;-80
2021/01/21 10:34:39;;;;;;;1999.90;999.90;;;8.20;99.90;;;;;;5084088;28;20183;-81
2021/01/21 10:37:05;;;;;;;1999.90;999.90;;;8.30;99.90;;;;;;5083727;28;20202;-80
2021/01/21 10:39:31;;;;;;;1999.90;999.90;;;8.30;99.90;;;;;;5066189;28;20216;-83
2021/01/21 10:41:56;;;;;;;1999.90;999.90;;;8.40;99.90;;;;;;5083427;28;20740;-80
2021/01/21 10:44:22;;;;;;;1999.90;999.90;;;8.30;99.90;;;;;;5083674;28;20888;-80
2021/01/21 10:46:48;;;;;;;1999.90;999.90;;;8.40;99.90;;;;;;5082182;28;20244;-79
2021/01/21 10:49:14;;;;;;;1999.90;999.90;;;8.30;99.90;;;;;;5082314;28;20156;-80
2021/01/21 10:51:40;;;;;;;1999.90;999.90;;;8.20;99.90;;;;;;5064213;28;20418;-80
2021/01/21 10:54:06;;;;;;;1999.90;999.90;;;8.20;99.90;;;;;;5064868;28;20406;-80
2021/01/21 10:56:33;;;;;;;1999.90;999.90;;;8.10;99.90;;;;;;5083048;28;20191;-79
2021/01/21 10:59:05;;;;;;;1999.90;999.90;;;8.30;99.90;;;;;;5081939;28;20383;-79
2021/01/21 11:01:34;;;;;;;1999.90;999.90;;;8.50;99.90;;;;;;5081907;28;20144;-79
2021/01/21 11:04:00;;;;;;;1999.90;999.90;;;8.30;99.90;;;;;;5063594;28;20168;-80
2021/01/21 11:06:26;;;;;;;1999.90;999.90;;;8.10;99.90;;;;;;5080166;28;20190;-80
2021/01/21 11:08:51;;;;;;;1999.90;999.90;;;8.30;99.90;;;;;;5062470;28;20179;-80
2021/01/21 11:11:17;;;;;;;1999.90;999.90;;;8.50;99.90;;;;;;5080816;28;20217;-80
2021/01/21 11:13:43;;;;;;;1999.90;999.90;;;8.30;99.90;;;;;;5080527;28;20176;-80
2021/01/21 11:16:10;;;;;;;1999.90;999.90;;;8.20;99.90;;;;;;5062264;28;20191;-80
2021/01/21 11:18:36;;;;;;;1999.90;999.90;;;8.20;99.90;;;;;;5063426;28;20526;-80
2021/01/21 11:21:02;;;;;;;1999.90;999.90;;;8.30;99.90;;;;;;5085390;28;20210;-80
2021/01/21 11:23:27;;;;;;;1999.90;999.90;;;8.30;99.90;;;;;;5067354;28;20159;-80
2021/01/21 11:25:59;;;;;;;1999.90;999.90;;;8.40;99.90;;;;;;5081961;28;20630;-81
2021/01/21 11:28:25;;;;;;;1999.90;999.90;;;8.40;99.90;;;;;;5062945;28;20191;-80
2021/01/21 11:30:51;;;;;;;1999.90;999.90;;;8.50;99.90;;;;;;5080401;28;20168;-80
2021/01/21 11:33:17;;;;;;;1999.90;999.90;;;8.60;99.90;;;;;;5062830;28;20234;-81
2021/01/21 11:35:43;;;;;;;1999.90;999.90;;;8.60;99.90;;;;;;5080770;28;20452;-80
2021/01/21 11:38:08;;;;;;;1999.90;999.90;;;8.70;99.90;;;;;;5063546;28;20164;-80
2021/01/21 11:40:34;;;;;;;1999.90;999.90;;;8.70;99.90;;;;;;5080841;28;20481;-80
2021/01/21 11:43:01;;;;;;;1999.90;999.90;;;8.70;99.90;;;;;;5080164;28;20665;-81
2021/01/21 11:45:26;;;;;;;1999.90;999.90;;;8.70;99.90;;;;;;5080461;28;20182;-82
2021/01/21 11:47:52;;;;;;;1999.90;999.90;;;8.90;99.90;;;;;;5081409;28;20159;-81
2021/01/21 11:50:18;;;;;;;1999.90;999.90;;;8.80;99.90;;;;;;5081919;28;20171;-80
2021/01/21 11:52:44;;;;;;;1999.90;999.90;;;8.80;99.90;;;;;;5082660;28;20191;-81
2021/01/21 11:55:11;;;;;;;1999.90;999.90;;;9.00;99.90;;;;;;5064723;28;20456;-80
2021/01/21 11:57:38;;;;;;;1999.90;999.90;;;9.10;99.90;;;;;;5082671;28;20159;-80
2021/01/21 12:00:12;;;;;;;1999.90;999.90;;;9.10;99.90;;;;;;5064733;28;20167;-80
2021/01/21 12:02:39;;;;;;;1999.90;999.90;;;9.10;99.90;;;;;;5082366;28;20143;-79
2021/01/21 12:05:06;;;;;;;1999.90;999.90;;;9.10;99.90;;;;;;5080462;28;20250;-80
2021/01/21 12:07:32;;;;;;;1999.90;999.90;;;9.10;99.90;;;;;;5080214;28;20247;-80
2021/01/21 12:10:00;;;;;;;1999.90;999.90;;;9.00;99.90;;;;;;5079676;28;20192;-80
2021/01/21 12:12:26;;;;;;;1999.90;999.90;;;9.00;99.90;;;;;;5080203;28;20295;-80
2021/01/21 12:14:52;;;;;;;1999.90;999.90;;;8.80;99.90;;;;;;5061632;28;20273;-80
2021/01/21 12:17:18;;;;;;;1999.90;999.90;;;8.90;99.90;;;;;;5062085;28;20662;-79